sensor_id;sensor_type;location;lat;lon;timestamp;P1;durP1;ratioP1;P2;durP2;ratioP2
47715;SDS011;33476;50.984;3.538;2023-10-09T00:00:57;8.95;;;4.80;;
47715;SDS011;33476;50.984;3.538;2023-10-09T00:03:29;8.88;;;4.22;;
47715;SDS011;33476;50.984;3.538;2023-10-09T00:05:56;7.60;;;4.20;;
47715;SDS011;33476;50.984;3.538;2023-10-09T00:08:23;8.73;;;4.70;;
47715;SDS011;33476;50.984;3.538;2023-10-09T00:11:10;11.48;;;4.97;;
47715;SDS011;33476;50.984;3.538;2023-10-09T00:13:41;12.80;;;4.53;;
47715;SDS011;33476;50.984;3.538;2023-10-09T00:16:18;8.30;;;4.28;;
47715;SDS011;33476;50.984;3.538;2023-10-09T00:18:58;8.52;;;4.80;;
47715;SDS011;33476;50.984;3.538;2023-10-09T00:21:39;9.27;;;4.28;;
47715;SDS011;33476;50.984;3.538;2023-10-09T00:24:07;9.17;;;4.80;;
47715;SDS011;33476;50.984;3.538;2023-10-09T00:29:10;9.45;;;4.88;;
47715;SDS011;33476;50.984;3.538;2023-10-09T00:31:47;12.48;;;5.45;;
47715;SDS011;33476;50.984;3.538;2023-10-09T00:34:30;10.65;;;5.00;;
47715;SDS011;33476;50.984;3.538;2023-10-09T00:37:04;13.05;;;5.15;;
47715;SDS011;33476;50.984;3.538;2023-10-09T00:39:41;11.93;;;5.28;;
47715;SDS011;33476;50.984;3.538;2023-10-09T00:42:10;8.13;;;4.47;;
47715;SDS011;33476;50.984;3.538;2023-10-09T00:44:46;7.40;;;4.53;;
47715;SDS011;33476;50.984;3.538;2023-10-09T00:47:14;8.52;;;4.65;;
47715;SDS011;33476;50.984;3.538;2023-10-09T00:50:06;12.05;;;5.30;;
47715;SDS011;33476;50.984;3.538;2023-10-09T00:52:47;10.25;;;4.70;;
47715;SDS011;33476;50.984;3.538;2023-10-09T00:55:17;10.43;;;5.43;;
47715;SDS011;33476;50.984;3.538;2023-10-09T00:58:04;8.20;;;4.90;;
47715;SDS011;33476;50.984;3.538;2023-10-09T01:00:37;13.40;;;5.57;;
47715;SDS011;33476;50.984;3.538;2023-10-09T01:03:09;10.43;;;5.10;;
47715;SDS011;33476;50.984;3.538;2023-10-09T01:05:57;9.73;;;5.60;;
47715;SDS011;33476;50.984;3.538;2023-10-09T01:08:33;13.48;;;5.43;;
47715;SDS011;33476;50.984;3.538;2023-10-09T01:11:04;9.55;;;4.47;;
47715;SDS011;33476;50.984;3.538;2023-10-09T01:13:44;7.82;;;4.30;;
47715;SDS011;33476;50.984;3.538;2023-10-09T01:16:13;10.18;;;4.93;;
47715;SDS011;33476;50.984;3.538;2023-10-09T01:18:46;7.55;;;4.22;;
47715;SDS011;33476;50.984;3.538;2023-10-09T01:21:16;9.93;;;4.70;;
47715;SDS011;33476;50.984;3.538;2023-10-09T01:23:56;11.43;;;4.53;;
47715;SDS011;33476;50.984;3.538;2023-10-09T01:26:48;10.73;;;4.68;;
47715;SDS011;33476;50.984;3.538;2023-10-09T01:29:21;7.40;;;4.40;;
47715;SDS011;33476;50.984;3.538;2023-10-09T01:31:51;7.68;;;4.18;;
47715;SDS011;33476;50.984;3.538;2023-10-09T01:34:22;11.80;;;4.90;;
47715;SDS011;33476;50.984;3.538;2023-10-09T01:36:57;7.65;;;3.60;;
47715;SDS011;33476;50.984;3.538;2023-10-09T01:39:25;6.00;;;3.90;;
47715;SDS011;33476;50.984;3.538;2023-10-09T01:41:53;7.75;;;3.80;;
47715;SDS011;33476;50.984;3.538;2023-10-09T01:44:28;9.07;;;4.15;;
47715;SDS011;33476;50.984;3.538;2023-10-09T01:46:56;6.32;;;3.47;;
47715;SDS011;33476;50.984;3.538;2023-10-09T01:49:23;7.32;;;3.92;;
47715;SDS011;33476;50.984;3.538;2023-10-09T01:51:56;8.10;;;4.38;;
47715;SDS011;33476;50.984;3.538;2023-10-09T01:54:32;8.77;;;4.28;;
47715;SDS011;33476;50.984;3.538;2023-10-09T01:57:07;8.63;;;4.50;;
47715;SDS011;33476;50.984;3.538;2023-10-09T01:59:40;10.63;;;4.13;;
47715;SDS011;33476;50.984;3.538;2023-10-09T02:02:12;7.03;;;4.55;;
47715;SDS011;33476;50.984;3.538;2023-10-09T02:05:00;8.60;;;4.60;;
47715;SDS011;33476;50.984;3.538;2023-10-09T02:07:50;11.80;;;5.10;;
47715;SDS011;33476;50.984;3.538;2023-10-09T02:10:16;7.68;;;4.25;;
47715;SDS011;33476;50.984;3.538;2023-10-09T02:13:04;11.70;;;5.18;;
47715;SDS011;33476;50.984;3.538;2023-10-09T02:15:39;10.27;;;4.78;;
47715;SDS011;33476;50.984;3.538;2023-10-09T02:18:05;7.75;;;4.55;;
47715;SDS011;33476;50.984;3.538;2023-10-09T02:20:41;7.55;;;5.00;;
47715;SDS011;33476;50.984;3.538;2023-10-09T02:23:10;8.45;;;4.90;;
47715;SDS011;33476;50.984;3.538;2023-10-09T02:25:38;10.00;;;4.65;;
47715;SDS011;33476;50.984;3.538;2023-10-09T02:28:09;10.55;;;4.30;;
47715;SDS011;33476;50.984;3.538;2023-10-09T02:30:44;6.40;;;4.32;;
47715;SDS011;33476;50.984;3.538;2023-10-09T02:33:16;12.25;;;4.50;;
47715;SDS011;33476;50.984;3.538;2023-10-09T02:35:55;8.82;;;4.22;;
47715;SDS011;33476;50.984;3.538;2023-10-09T02:38:24;7.60;;;4.78;;
47715;SDS011;33476;50.984;3.538;2023-10-09T02:40:51;8.27;;;4.57;;
47715;SDS011;33476;50.984;3.538;2023-10-09T02:43:32;10.27;;;4.57;;
47715;SDS011;33476;50.984;3.538;2023-10-09T02:46:16;13.02;;;5.00;;
47715;SDS011;33476;50.984;3.538;2023-10-09T02:48:46;8.90;;;4.68;;
47715;SDS011;33476;50.984;3.538;2023-10-09T02:51:16;11.68;;;5.47;;
47715;SDS011;33476;50.984;3.538;2023-10-09T02:53:51;9.18;;;5.00;;
47715;SDS011;33476;50.984;3.538;2023-10-09T02:56:17;12.52;;;6.00;;
47715;SDS011;33476;50.984;3.538;2023-10-09T02:58:48;10.70;;;5.55;;
47715;SDS011;33476;50.984;3.538;2023-10-09T03:01:16;9.07;;;5.30;;
47715;SDS011;33476;50.984;3.538;2023-10-09T03:03:42;10.90;;;5.85;;
47715;SDS011;33476;50.984;3.538;2023-10-09T03:06:12;9.52;;;6.28;;
47715;SDS011;33476;50.984;3.538;2023-10-09T03:08:39;10.63;;;5.25;;
47715;SDS011;33476;50.984;3.538;2023-10-09T03:11:08;15.45;;;5.97;;
47715;SDS011;33476;50.984;3.538;2023-10-09T03:13:40;11.13;;;5.60;;
47715;SDS011;33476;50.984;3.538;2023-10-09T03:16:08;8.38;;;5.55;;
47715;SDS011;33476;50.984;3.538;2023-10-09T03:18:39;8.95;;;5.25;;
47715;SDS011;33476;50.984;3.538;2023-10-09T03:21:05;9.48;;;6.25;;
47715;SDS011;33476;50.984;3.538;2023-10-09T03:23:31;14.38;;;6.43;;
47715;SDS011;33476;50.984;3.538;2023-10-09T03:25:57;11.82;;;6.18;;
47715;SDS011;33476;50.984;3.538;2023-10-09T03:28:23;12.63;;;6.70;;
47715;SDS011;33476;50.984;3.538;2023-10-09T03:30:49;12.20;;;6.53;;
47715;SDS011;33476;50.984;3.538;2023-10-09T03:33:15;11.35;;;6.18;;
47715;SDS011;33476;50.984;3.538;2023-10-09T03:35:42;13.35;;;6.10;;
47715;SDS011;33476;50.984;3.538;2023-10-09T03:38:08;16.17;;;6.80;;
47715;SDS011;33476;50.984;3.538;2023-10-09T03:40:44;14.82;;;6.85;;
47715;SDS011;33476;50.984;3.538;2023-10-09T03:43:13;13.75;;;7.32;;
47715;SDS011;33476;50.984;3.538;2023-10-09T03:45:41;13.40;;;7.10;;
47715;SDS011;33476;50.984;3.538;2023-10-09T03:48:10;13.43;;;6.88;;
47715;SDS011;33476;50.984;3.538;2023-10-09T03:50:45;14.00;;;7.30;;
47715;SDS011;33476;50.984;3.538;2023-10-09T03:53:11;12.43;;;7.00;;
47715;SDS011;33476;50.984;3.538;2023-10-09T03:55:38;15.00;;;7.28;;
47715;SDS011;33476;50.984;3.538;2023-10-09T03:58:04;13.05;;;7.35;;
47715;SDS011;33476;50.984;3.538;2023-10-09T04:00:31;13.63;;;7.40;;
47715;SDS011;33476;50.984;3.538;2023-10-09T04:03:06;12.68;;;7.00;;
47715;SDS011;33476;50.984;3.538;2023-10-09T04:05:31;12.30;;;7.18;;
47715;SDS011;33476;50.984;3.538;2023-10-09T04:07:57;12.98;;;7.40;;
47715;SDS011;33476;50.984;3.538;2023-10-09T04:10:27;13.93;;;7.45;;
47715;SDS011;33476;50.984;3.538;2023-10-09T04:13:09;13.57;;;6.80;;
47715;SDS011;33476;50.984;3.538;2023-10-09T04:15:37;15.55;;;7.15;;
47715;SDS011;33476;50.984;3.538;2023-10-09T04:18:03;14.50;;;7.88;;
47715;SDS011;33476;50.984;3.538;2023-10-09T04:20:34;12.30;;;6.40;;
47715;SDS011;33476;50.984;3.538;2023-10-09T04:23:18;15.57;;;7.47;;
47715;SDS011;33476;50.984;3.538;2023-10-09T04:25:58;15.65;;;7.45;;
47715;SDS011;33476;50.984;3.538;2023-10-09T04:28:24;15.90;;;6.78;;
47715;SDS011;33476;50.984;3.538;2023-10-09T04:30:50;13.80;;;7.28;;
47715;SDS011;33476;50.984;3.538;2023-10-09T04:33:18;15.32;;;6.75;;
47715;SDS011;33476;50.984;3.538;2023-10-09T04:36:05;15.60;;;7.32;;
47715;SDS011;33476;50.984;3.538;2023-10-09T04:38:43;16.60;;;7.43;;
47715;SDS011;33476;50.984;3.538;2023-10-09T04:41:21;15.38;;;7.53;;
47715;SDS011;33476;50.984;3.538;2023-10-09T04:43:53;15.30;;;8.20;;
47715;SDS011;33476;50.984;3.538;2023-10-09T04:46:30;14.50;;;7.47;;
47715;SDS011;33476;50.984;3.538;2023-10-09T04:49:08;18.27;;;7.65;;
47715;SDS011;33476;50.984;3.538;2023-10-09T04:52:03;13.02;;;7.53;;
47715;SDS011;33476;50.984;3.538;2023-10-09T04:54:32;17.00;;;8.10;;
47715;SDS011;33476;50.984;3.538;2023-10-09T04:57:26;14.60;;;7.53;;
47715;SDS011;33476;50.984;3.538;2023-10-09T04:59:52;16.83;;;7.30;;
47715;SDS011;33476;50.984;3.538;2023-10-09T05:02:19;12.85;;;7.45;;
47715;SDS011;33476;50.984;3.538;2023-10-09T05:04:46;15.23;;;7.85;;
47715;SDS011;33476;50.984;3.538;2023-10-09T05:07:16;13.20;;;7.65;;
47715;SDS011;33476;50.984;3.538;2023-10-09T05:10:10;17.45;;;7.53;;
47715;SDS011;33476;50.984;3.538;2023-10-09T05:12:43;20.10;;;7.45;;
47715;SDS011;33476;50.984;3.538;2023-10-09T05:15:15;14.35;;;7.63;;
47715;SDS011;33476;50.984;3.538;2023-10-09T05:17:41;15.93;;;7.78;;
47715;SDS011;33476;50.984;3.538;2023-10-09T05:20:17;13.88;;;6.95;;
47715;SDS011;33476;50.984;3.538;2023-10-09T05:22:48;12.35;;;6.93;;
47715;SDS011;33476;50.984;3.538;2023-10-09T05:25:24;11.93;;;7.05;;
47715;SDS011;33476;50.984;3.538;2023-10-09T05:28:16;13.98;;;6.88;;
47715;SDS011;33476;50.984;3.538;2023-10-09T05:30:51;15.80;;;7.68;;
47715;SDS011;33476;50.984;3.538;2023-10-09T05:33:28;17.45;;;7.90;;
47715;SDS011;33476;50.984;3.538;2023-10-09T05:35:54;13.60;;;7.10;;
47715;SDS011;33476;50.984;3.538;2023-10-09T05:38:38;15.35;;;7.30;;
47715;SDS011;33476;50.984;3.538;2023-10-09T05:41:11;14.52;;;7.47;;
47715;SDS011;33476;50.984;3.538;2023-10-09T05:43:59;12.73;;;7.30;;
47715;SDS011;33476;50.984;3.538;2023-10-09T05:46:43;16.75;;;8.32;;
47715;SDS011;33476;50.984;3.538;2023-10-09T05:49:29;15.48;;;7.97;;
47715;SDS011;33476;50.984;3.538;2023-10-09T05:52:11;14.68;;;7.72;;
47715;SDS011;33476;50.984;3.538;2023-10-09T05:54:58;20.80;;;8.38;;
47715;SDS011;33476;50.984;3.538;2023-10-09T05:57:43;15.15;;;8.07;;
47715;SDS011;33476;50.984;3.538;2023-10-09T06:00:27;15.43;;;8.15;;
47715;SDS011;33476;50.984;3.538;2023-10-09T06:03:11;16.42;;;8.45;;
47715;SDS011;33476;50.984;3.538;2023-10-09T06:05:46;15.60;;;8.65;;
47715;SDS011;33476;50.984;3.538;2023-10-09T06:08:21;18.35;;;8.35;;
47715;SDS011;33476;50.984;3.538;2023-10-09T06:10:52;18.20;;;8.70;;
47715;SDS011;33476;50.984;3.538;2023-10-09T06:13:34;14.65;;;8.00;;
47715;SDS011;33476;50.984;3.538;2023-10-09T06:16:02;15.15;;;8.45;;
47715;SDS011;33476;50.984;3.538;2023-10-09T06:18:44;17.80;;;8.50;;
47715;SDS011;33476;50.984;3.538;2023-10-09T06:21:19;17.55;;;8.80;;
47715;SDS011;33476;50.984;3.538;2023-10-09T06:24:23;16.55;;;8.20;;
47715;SDS011;33476;50.984;3.538;2023-10-09T06:26:49;18.48;;;8.25;;
47715;SDS011;33476;50.984;3.538;2023-10-09T06:29:28;21.27;;;9.73;;
47715;SDS011;33476;50.984;3.538;2023-10-09T06:32:09;17.92;;;10.07;;
47715;SDS011;33476;50.984;3.538;2023-10-09T06:34:48;16.50;;;9.23;;
47715;SDS011;33476;50.984;3.538;2023-10-09T06:37:17;24.27;;;10.63;;
47715;SDS011;33476;50.984;3.538;2023-10-09T06:39:49;18.13;;;9.55;;
47715;SDS011;33476;50.984;3.538;2023-10-09T06:42:21;15.30;;;8.73;;
47715;SDS011;33476;50.984;3.538;2023-10-09T06:44:59;16.95;;;8.55;;
47715;SDS011;33476;50.984;3.538;2023-10-09T06:47:33;20.20;;;9.63;;
47715;SDS011;33476;50.984;3.538;2023-10-09T06:50:07;24.92;;;9.45;;
47715;SDS011;33476;50.984;3.538;2023-10-09T06:52:46;18.42;;;9.30;;
47715;SDS011;33476;50.984;3.538;2023-10-09T06:55:36;17.27;;;9.60;;
47715;SDS011;33476;50.984;3.538;2023-10-09T06:58:22;18.85;;;9.77;;
47715;SDS011;33476;50.984;3.538;2023-10-09T07:00:52;19.25;;;9.38;;
47715;SDS011;33476;50.984;3.538;2023-10-09T07:03:32;19.48;;;10.40;;
47715;SDS011;33476;50.984;3.538;2023-10-09T07:06:10;18.33;;;9.80;;
47715;SDS011;33476;50.984;3.538;2023-10-09T07:09:11;17.60;;;8.85;;
47715;SDS011;33476;50.984;3.538;2023-10-09T07:11:38;20.67;;;10.00;;
47715;SDS011;33476;50.984;3.538;2023-10-09T07:14:08;19.83;;;9.63;;
47715;SDS011;33476;50.984;3.538;2023-10-09T07:16:54;18.23;;;8.70;;
47715;SDS011;33476;50.984;3.538;2023-10-09T07:19:27;19.55;;;9.15;;
47715;SDS011;33476;50.984;3.538;2023-10-09T07:21:59;16.15;;;8.68;;
47715;SDS011;33476;50.984;3.538;2023-10-09T07:24:31;26.73;;;10.30;;
47715;SDS011;33476;50.984;3.538;2023-10-09T07:27:08;23.23;;;9.60;;
47715;SDS011;33476;50.984;3.538;2023-10-09T07:29:39;18.27;;;9.90;;
47715;SDS011;33476;50.984;3.538;2023-10-09T07:32:14;22.13;;;10.38;;
47715;SDS011;33476;50.984;3.538;2023-10-09T07:34:46;18.23;;;9.57;;
47715;SDS011;33476;50.984;3.538;2023-10-09T07:37:18;21.20;;;10.02;;
47715;SDS011;33476;50.984;3.538;2023-10-09T07:39:48;19.92;;;10.20;;
47715;SDS011;33476;50.984;3.538;2023-10-09T07:42:31;24.20;;;10.68;;
47715;SDS011;33476;50.984;3.538;2023-10-09T07:45:00;23.60;;;10.60;;
47715;SDS011;33476;50.984;3.538;2023-10-09T07:47:37;20.10;;;10.52;;
47715;SDS011;33476;50.984;3.538;2023-10-09T07:50:22;30.73;;;12.52;;
47715;SDS011;33476;50.984;3.538;2023-10-09T07:52:47;21.08;;;11.00;;
47715;SDS011;33476;50.984;3.538;2023-10-09T07:55:15;21.88;;;11.65;;
47715;SDS011;33476;50.984;3.538;2023-10-09T07:57:52;25.88;;;11.25;;
47715;SDS011;33476;50.984;3.538;2023-10-09T08:00:18;24.27;;;11.32;;
47715;SDS011;33476;50.984;3.538;2023-10-09T08:03:02;24.92;;;11.63;;
47715;SDS011;33476;50.984;3.538;2023-10-09T08:05:28;22.00;;;10.82;;
47715;SDS011;33476;50.984;3.538;2023-10-09T08:07:59;29.42;;;11.88;;
47715;SDS011;33476;50.984;3.538;2023-10-09T08:11:04;22.60;;;11.55;;
47715;SDS011;33476;50.984;3.538;2023-10-09T08:13:50;21.58;;;11.80;;
47715;SDS011;33476;50.984;3.538;2023-10-09T08:16:26;29.70;;;12.43;;
47715;SDS011;33476;50.984;3.538;2023-10-09T08:19:02;25.40;;;12.82;;
47715;SDS011;33476;50.984;3.538;2023-10-09T08:21:48;26.80;;;12.88;;
47715;SDS011;33476;50.984;3.538;2023-10-09T08:24:33;20.73;;;12.10;;
47715;SDS011;33476;50.984;3.538;2023-10-09T08:27:31;21.02;;;12.50;;
47715;SDS011;33476;50.984;3.538;2023-10-09T08:30:00;19.80;;;12.25;;
47715;SDS011;33476;50.984;3.538;2023-10-09T08:32:44;22.83;;;12.57;;
47715;SDS011;33476;50.984;3.538;2023-10-09T08:35:26;23.85;;;12.13;;
47715;SDS011;33476;50.984;3.538;2023-10-09T08:38:01;25.52;;;13.13;;
47715;SDS011;33476;50.984;3.538;2023-10-09T08:40:33;23.90;;;12.77;;
47715;SDS011;33476;50.984;3.538;2023-10-09T08:43:08;26.55;;;13.20;;
47715;SDS011;33476;50.984;3.538;2023-10-09T08:45:38;22.80;;;12.20;;
47715;SDS011;33476;50.984;3.538;2023-10-09T08:48:08;23.87;;;12.37;;
47715;SDS011;33476;50.984;3.538;2023-10-09T08:50:40;28.38;;;12.75;;
47715;SDS011;33476;50.984;3.538;2023-10-09T08:53:10;19.30;;;11.77;;
47715;SDS011;33476;50.984;3.538;2023-10-09T08:55:39;19.85;;;12.00;;
47715;SDS011;33476;50.984;3.538;2023-10-09T08:58:05;19.27;;;11.43;;
47715;SDS011;33476;50.984;3.538;2023-10-09T09:00:43;27.98;;;11.95;;
47715;SDS011;33476;50.984;3.538;2023-10-09T09:03:17;24.90;;;12.27;;
47715;SDS011;33476;50.984;3.538;2023-10-09T09:05:48;22.67;;;11.77;;
47715;SDS011;33476;50.984;3.538;2023-10-09T09:08:25;23.15;;;10.82;;
47715;SDS011;33476;50.984;3.538;2023-10-09T09:13:46;20.17;;;12.13;;
47715;SDS011;33476;50.984;3.538;2023-10-09T09:18:52;19.98;;;12.27;;
47715;SDS011;33476;50.984;3.538;2023-10-09T09:21:30;21.02;;;11.05;;
47715;SDS011;33476;50.984;3.538;2023-10-09T09:24:05;19.48;;;10.75;;
47715;SDS011;33476;50.984;3.538;2023-10-09T09:26:48;22.40;;;10.75;;
47715;SDS011;33476;50.984;3.538;2023-10-09T09:29:24;21.00;;;11.07;;
47715;SDS011;33476;50.984;3.538;2023-10-09T09:32:02;23.95;;;11.80;;
47715;SDS011;33476;50.984;3.538;2023-10-09T09:34:45;18.70;;;11.03;;
47715;SDS011;33476;50.984;3.538;2023-10-09T09:37:23;21.52;;;11.23;;
47715;SDS011;33476;50.984;3.538;2023-10-09T09:40:02;24.02;;;11.85;;
47715;SDS011;33476;50.984;3.538;2023-10-09T09:42:42;20.55;;;11.23;;
47715;SDS011;33476;50.984;3.538;2023-10-09T09:45:10;22.13;;;11.05;;
47715;SDS011;33476;50.984;3.538;2023-10-09T09:47:36;24.98;;;11.60;;
47715;SDS011;33476;50.984;3.538;2023-10-09T09:50:04;21.15;;;11.05;;
47715;SDS011;33476;50.984;3.538;2023-10-09T09:52:47;24.45;;;10.95;;
47715;SDS011;33476;50.984;3.538;2023-10-09T09:55:18;26.88;;;11.00;;
47715;SDS011;33476;50.984;3.538;2023-10-09T09:57:47;27.83;;;11.57;;
47715;SDS011;33476;50.984;3.538;2023-10-09T10:00:21;17.67;;;11.02;;
47715;SDS011;33476;50.984;3.538;2023-10-09T10:03:15;26.00;;;11.52;;
47715;SDS011;33476;50.984;3.538;2023-10-09T10:05:44;23.80;;;11.02;;
47715;SDS011;33476;50.984;3.538;2023-10-09T10:08:11;20.38;;;10.23;;
47715;SDS011;33476;50.984;3.538;2023-10-09T10:10:45;19.98;;;10.70;;
47715;SDS011;33476;50.984;3.538;2023-10-09T10:16:07;18.30;;;10.10;;
47715;SDS011;33476;50.984;3.538;2023-10-09T10:18:59;20.05;;;10.20;;
47715;SDS011;33476;50.984;3.538;2023-10-09T10:21:43;20.48;;;10.27;;
47715;SDS011;33476;50.984;3.538;2023-10-09T10:25:00;19.73;;;10.23;;
47715;SDS011;33476;50.984;3.538;2023-10-09T10:27:22;17.08;;;9.95;;
47715;SDS011;33476;50.984;3.538;2023-10-09T10:35:17;18.40;;;9.93;;
47715;SDS011;33476;50.984;3.538;2023-10-09T10:37:45;18.83;;;10.65;;
47715;SDS011;33476;50.984;3.538;2023-10-09T10:40:25;16.70;;;9.73;;
47715;SDS011;33476;50.984;3.538;2023-10-09T10:43:04;16.80;;;9.65;;
47715;SDS011;33476;50.984;3.538;2023-10-09T10:45:48;21.70;;;9.88;;
47715;SDS011;33476;50.984;3.538;2023-10-09T10:48:13;19.40;;;9.73;;
47715;SDS011;33476;50.984;3.538;2023-10-09T10:51:02;19.85;;;9.65;;
47715;SDS011;33476;50.984;3.538;2023-10-09T10:53:29;16.95;;;9.70;;
47715;SDS011;33476;50.984;3.538;2023-10-09T10:56:02;18.63;;;9.93;;
47715;SDS011;33476;50.984;3.538;2023-10-09T10:58:40;31.30;;;10.18;;
47715;SDS011;33476;50.984;3.538;2023-10-09T11:01:29;18.80;;;9.95;;
47715;SDS011;33476;50.984;3.538;2023-10-09T11:04:15;19.45;;;9.00;;
47715;SDS011;33476;50.984;3.538;2023-10-09T11:06:50;24.60;;;9.52;;
47715;SDS011;33476;50.984;3.538;2023-10-09T11:09:16;24.38;;;9.25;;
47715;SDS011;33476;50.984;3.538;2023-10-09T11:11:48;18.85;;;9.70;;
47715;SDS011;33476;50.984;3.538;2023-10-09T11:14:15;18.27;;;8.95;;
47715;SDS011;33476;50.984;3.538;2023-10-09T11:16:41;15.80;;;8.48;;
47715;SDS011;33476;50.984;3.538;2023-10-09T11:19:10;17.88;;;8.88;;
47715;SDS011;33476;50.984;3.538;2023-10-09T11:21:55;15.80;;;8.45;;
47715;SDS011;33476;50.984;3.538;2023-10-09T11:24:27;16.63;;;8.43;;
47715;SDS011;33476;50.984;3.538;2023-10-09T11:26:58;22.63;;;8.50;;
47715;SDS011;33476;50.984;3.538;2023-10-09T11:29:30;16.92;;;9.02;;
47715;SDS011;33476;50.984;3.538;2023-10-09T11:32:08;16.27;;;8.38;;
47715;SDS011;33476;50.984;3.538;2023-10-09T11:34:49;14.60;;;8.00;;
47715;SDS011;33476;50.984;3.538;2023-10-09T11:37:22;18.58;;;8.20;;
47715;SDS011;33476;50.984;3.538;2023-10-09T11:39:54;17.73;;;9.02;;
47715;SDS011;33476;50.984;3.538;2023-10-09T11:42:20;15.95;;;8.25;;
47715;SDS011;33476;50.984;3.538;2023-10-09T11:45:05;17.55;;;7.85;;
47715;SDS011;33476;50.984;3.538;2023-10-09T11:47:53;21.52;;;8.23;;
47715;SDS011;33476;50.984;3.538;2023-10-09T11:51:04;15.30;;;8.35;;
47715;SDS011;33476;50.984;3.538;2023-10-09T11:53:28;18.00;;;7.78;;
47715;SDS011;33476;50.984;3.538;2023-10-09T11:55:53;13.35;;;7.60;;
47715;SDS011;33476;50.984;3.538;2023-10-09T11:58:19;15.88;;;7.10;;
47715;SDS011;33476;50.984;3.538;2023-10-09T12:00:51;14.52;;;7.25;;
47715;SDS011;33476;50.984;3.538;2023-10-09T12:03:22;15.65;;;7.47;;
47715;SDS011;33476;50.984;3.538;2023-10-09T12:05:53;14.00;;;6.70;;
47715;SDS011;33476;50.984;3.538;2023-10-09T12:08:21;15.88;;;6.25;;
47715;SDS011;33476;50.984;3.538;2023-10-09T12:10:47;14.93;;;6.88;;
47715;SDS011;33476;50.984;3.538;2023-10-09T12:13:13;15.25;;;7.50;;
47715;SDS011;33476;50.984;3.538;2023-10-09T12:15:40;13.38;;;6.50;;
47715;SDS011;33476;50.984;3.538;2023-10-09T12:18:09;13.85;;;6.82;;
47715;SDS011;33476;50.984;3.538;2023-10-09T12:20:39;14.98;;;7.53;;
47715;SDS011;33476;50.984;3.538;2023-10-09T12:23:06;16.30;;;7.13;;
47715;SDS011;33476;50.984;3.538;2023-10-09T12:25:34;12.93;;;6.95;;
47715;SDS011;33476;50.984;3.538;2023-10-09T12:28:00;14.50;;;7.20;;
47715;SDS011;33476;50.984;3.538;2023-10-09T12:30:30;15.20;;;7.82;;
47715;SDS011;33476;50.984;3.538;2023-10-09T12:32:56;18.63;;;8.40;;
47715;SDS011;33476;50.984;3.538;2023-10-09T12:35:26;15.50;;;7.95;;
47715;SDS011;33476;50.984;3.538;2023-10-09T12:37:53;14.60;;;7.75;;
47715;SDS011;33476;50.984;3.538;2023-10-09T12:40:23;18.80;;;8.25;;
47715;SDS011;33476;50.984;3.538;2023-10-09T12:42:52;16.88;;;7.82;;
47715;SDS011;33476;50.984;3.538;2023-10-09T12:45:17;13.70;;;8.25;;
47715;SDS011;33476;50.984;3.538;2023-10-09T12:47:50;14.77;;;8.25;;
47715;SDS011;33476;50.984;3.538;2023-10-09T12:50:16;17.58;;;8.13;;
47715;SDS011;33476;50.984;3.538;2023-10-09T12:52:52;14.70;;;7.88;;
47715;SDS011;33476;50.984;3.538;2023-10-09T12:55:18;16.88;;;8.30;;
47715;SDS011;33476;50.984;3.538;2023-10-09T12:57:45;14.25;;;8.45;;
47715;SDS011;33476;50.984;3.538;2023-10-09T13:00:10;16.27;;;8.60;;
47715;SDS011;33476;50.984;3.538;2023-10-09T13:02:37;18.25;;;9.32;;
47715;SDS011;33476;50.984;3.538;2023-10-09T13:05:08;19.38;;;8.40;;
47715;SDS011;33476;50.984;3.538;2023-10-09T13:07:35;17.15;;;8.40;;
47715;SDS011;33476;50.984;3.538;2023-10-09T13:10:00;16.80;;;8.65;;
47715;SDS011;33476;50.984;3.538;2023-10-09T13:12:37;19.83;;;9.02;;
47715;SDS011;33476;50.984;3.538;2023-10-09T13:15:09;16.52;;;8.43;;
47715;SDS011;33476;50.984;3.538;2023-10-09T13:17:35;15.30;;;8.52;;
47715;SDS011;33476;50.984;3.538;2023-10-09T13:20:02;14.77;;;8.88;;
47715;SDS011;33476;50.984;3.538;2023-10-09T13:22:30;19.30;;;9.18;;
47715;SDS011;33476;50.984;3.538;2023-10-09T13:24:56;14.40;;;7.95;;
47715;SDS011;33476;50.984;3.538;2023-10-09T13:27:28;15.10;;;8.82;;
47715;SDS011;33476;50.984;3.538;2023-10-09T13:29:59;17.05;;;8.70;;
47715;SDS011;33476;50.984;3.538;2023-10-09T13:32:31;18.23;;;8.57;;
47715;SDS011;33476;50.984;3.538;2023-10-09T13:35:01;15.40;;;8.20;;
47715;SDS011;33476;50.984;3.538;2023-10-09T13:37:30;19.38;;;9.35;;
47715;SDS011;33476;50.984;3.538;2023-10-09T13:40:02;22.77;;;9.18;;
47715;SDS011;33476;50.984;3.538;2023-10-09T13:42:34;21.45;;;9.48;;
47715;SDS011;33476;50.984;3.538;2023-10-09T13:45:01;24.73;;;10.10;;
47715;SDS011;33476;50.984;3.538;2023-10-09T13:47:29;23.42;;;9.75;;
47715;SDS011;33476;50.984;3.538;2023-10-09T13:49:57;17.70;;;8.93;;
47715;SDS011;33476;50.984;3.538;2023-10-09T13:52:24;15.55;;;9.02;;
47715;SDS011;33476;50.984;3.538;2023-10-09T13:54:50;17.58;;;8.13;;
47715;SDS011;33476;50.984;3.538;2023-10-09T13:57:15;15.82;;;8.40;;
47715;SDS011;33476;50.984;3.538;2023-10-09T13:59:41;14.50;;;7.60;;
47715;SDS011;33476;50.984;3.538;2023-10-09T14:02:17;14.68;;;7.32;;
47715;SDS011;33476;50.984;3.538;2023-10-09T14:04:46;15.07;;;6.35;;
47715;SDS011;33476;50.984;3.538;2023-10-09T14:07:12;15.18;;;6.85;;
47715;SDS011;33476;50.984;3.538;2023-10-09T14:09:41;17.07;;;7.33;;
47715;SDS011;33476;50.984;3.538;2023-10-09T14:12:20;17.73;;;6.75;;
47715;SDS011;33476;50.984;3.538;2023-10-09T14:14:47;13.07;;;6.00;;
47715;SDS011;33476;50.984;3.538;2023-10-09T14:17:13;15.65;;;6.45;;
47715;SDS011;33476;50.984;3.538;2023-10-09T14:19:40;14.02;;;6.60;;
47715;SDS011;33476;50.984;3.538;2023-10-09T14:22:16;14.90;;;6.38;;
47715;SDS011;33476;50.984;3.538;2023-10-09T14:27:10;12.60;;;6.30;;
47715;SDS011;33476;50.984;3.538;2023-10-09T14:29:51;15.40;;;6.07;;
47715;SDS011;33476;50.984;3.538;2023-10-09T14:32:21;16.15;;;6.93;;
47715;SDS011;33476;50.984;3.538;2023-10-09T14:34:53;12.38;;;6.22;;
47715;SDS011;33476;50.984;3.538;2023-10-09T14:37:25;21.23;;;6.82;;
47715;SDS011;33476;50.984;3.538;2023-10-09T14:39:51;16.23;;;6.72;;
47715;SDS011;33476;50.984;3.538;2023-10-09T14:42:17;16.48;;;6.55;;
47715;SDS011;33476;50.984;3.538;2023-10-09T14:44:43;17.52;;;7.00;;
47715;SDS011;33476;50.984;3.538;2023-10-09T14:47:12;15.57;;;6.93;;
47715;SDS011;33476;50.984;3.538;2023-10-09T14:49:39;17.63;;;6.97;;
47715;SDS011;33476;50.984;3.538;2023-10-09T14:52:09;14.43;;;6.35;;
47715;SDS011;33476;50.984;3.538;2023-10-09T14:54:35;16.10;;;7.05;;
47715;SDS011;33476;50.984;3.538;2023-10-09T14:57:01;15.05;;;6.07;;
47715;SDS011;33476;50.984;3.538;2023-10-09T14:59:33;14.53;;;6.00;;
47715;SDS011;33476;50.984;3.538;2023-10-09T15:01:59;11.77;;;6.03;;
47715;SDS011;33476;50.984;3.538;2023-10-09T15:04:25;15.57;;;6.97;;
47715;SDS011;33476;50.984;3.538;2023-10-09T15:06:52;14.93;;;6.65;;
47715;SDS011;33476;50.984;3.538;2023-10-09T15:09:18;16.67;;;6.53;;
47715;SDS011;33476;50.984;3.538;2023-10-09T15:11:53;12.63;;;5.45;;
47715;SDS011;33476;50.984;3.538;2023-10-09T15:14:20;15.02;;;6.45;;
47715;SDS011;33476;50.984;3.538;2023-10-09T15:16:46;12.82;;;5.05;;
47715;SDS011;33476;50.984;3.538;2023-10-09T15:19:13;14.75;;;5.90;;
47715;SDS011;33476;50.984;3.538;2023-10-09T15:21:39;11.35;;;5.45;;
47715;SDS011;33476;50.984;3.538;2023-10-09T15:24:11;12.20;;;5.57;;
47715;SDS011;33476;50.984;3.538;2023-10-09T15:26:44;12.35;;;6.05;;
47715;SDS011;33476;50.984;3.538;2023-10-09T15:29:17;12.15;;;5.70;;